Time;durP1;ratioP1;P1;durP2;ratioP2;P2;SDS_P1;SDS_P2;PMS_P1;PMS_P2;Temp;Humidity;BMP_temperature;BMP_pressure;BME280_temperature;BME280_humidity;BME280_pressure;Samples;Min_cycle;Max_cycle;Signal;HPM_P1;HPM_P2
2021/06/30 00:07:32;;;;;;;2.35;1.02;;;25.10;34.60;;;;;;20824705;28;20052;-68
2021/06/30 00:17:34;;;;;;;2.67;1.25;;;24.90;35.90;;;;;;20852772;28;20063;-67
2021/06/30 00:27:36;;;;;;;4.07;1.40;;;24.70;36.60;;;;;;20839327;28;20057;-60
2021/06/30 00:37:38;;;;;;;3.65;1.45;;;24.50;36.90;;;;;;20838643;28;20052;-69
2021/06/30 00:47:39;;;;;;;4.40;1.50;;;24.30;37.60;;;;;;20837189;28;20065;-66
2021/06/30 00:57:44;;;;;;;2.92;1.52;;;24.20;38.30;;;;;;20837693;28;20302;-60
2021/06/30 01:07:45;;;;;;;5.50;1.50;;;24.10;39.00;;;;;;20836496;28;20059;-71
2021/06/30 01:17:53;;;;;;;5.15;2.00;;;23.80;39.60;;;;;;20835729;28;20057;-59
2021/06/30 01:27:55;;;;;;;3.25;1.85;;;23.70;40.20;;;;;;20835472;28;20060;-62
2021/06/30 01:38:00;;;;;;;3.67;1.92;;;23.60;40.60;;;;;;20834412;28;20482;-59
2021/06/30 01:48:04;;;;;;;6.40;1.67;;;23.30;41.30;;;;;;20833616;28;20059;-59
2021/06/30 01:58:06;;;;;;;6.82;2.13;;;23.20;41.50;;;;;;20832431;28;20124;-58
2021/06/30 02:08:07;;;;;;;3.78;1.52;;;23.20;41.60;;;;;;20831546;28;20130;-59
2021/06/30 02:18:15;;;;;;;5.13;1.98;;;22.90;42.10;;;;;;20830838;28;20063;-70
2021/06/30 02:28:20;;;;;;;5.20;1.98;;;22.80;42.30;;;;;;20830069;28;20045;-61
2021/06/30 02:38:23;;;;;;;4.03;1.80;;;22.60;42.60;;;;;;20829567;28;20140;-59
2021/06/30 02:48:26;;;;;;;3.22;1.88;;;22.40;42.90;;;;;;20829965;28;20049;-60
2021/06/30 02:58:29;;;;;;;4.65;2.00;;;22.30;43.10;;;;;;20830333;28;20045;-59
2021/06/30 03:08:37;;;;;;;6.40;2.60;;;22.10;43.40;;;;;;20833953;28;20081;-68
2021/06/30 03:18:43;;;;;;;4.00;2.72;;;22.00;43.70;;;;;;20846201;28;20049;-61
2021/06/30 03:28:48;;;;;;;4.13;2.10;;;21.90;43.90;;;;;;20844316;28;20127;-64
2021/06/30 03:38:53;;;;;;;4.20;2.10;;;21.70;44.20;;;;;;20845390;28;20144;-71
2021/06/30 03:48:59;;;;;;;3.85;2.15;;;21.60;44.40;;;;;;20845920;28;20393;-59
2021/06/30 03:59:05;;;;;;;4.95;2.00;;;21.50;44.70;;;;;;20842552;28;20421;-63
2021/06/30 04:09:14;;;;;;;5.60;2.25;;;21.40;44.90;;;;;;20841119;28;20085;-66
2021/06/30 04:19:22;;;;;;;5.18;2.38;;;21.30;45.20;;;;;;20839578;28;20498;-71
2021/06/30 04:29:27;;;;;;;6.60;2.30;;;21.30;45.30;;;;;;20839167;28;20061;-69
2021/06/30 04:39:37;;;;;;;7.18;2.33;;;21.20;45.80;;;;;;20840238;28;20072;-71
2021/06/30 04:49:51;;;;;;;3.67;2.53;;;21.00;46.30;;;;;;20846761;28;20053;-71
2021/06/30 04:59:56;;;;;;;7.18;2.42;;;21.00;46.70;;;;;;20847691;28;20045;-64
2021/06/30 05:10:00;;;;;;;5.68;2.30;;;21.00;47.20;;;;;;20835687;28;20049;-63
2021/06/30 05:20:04;;;;;;;5.23;2.30;;;20.90;47.60;;;;;;20846208;28;20111;-65
2021/06/30 05:30:09;;;;;;;4.10;2.83;;;20.90;48.00;;;;;;20837196;28;20307;-68
2021/06/30 05:40:11;;;;;;;;;;;20.90;48.30;;;;;;20833859;28;20132;-63
2021/06/30 05:50:15;;;;;;;4.97;2.75;;;20.80;48.20;;;;;;20833035;28;19983;-72
2021/06/30 06:00:19;;;;;;;8.05;2.80;;;21.00;48.40;;;;;;20831876;28;20046;-71
2021/06/30 06:10:21;;;;;;;5.70;3.42;;;21.20;49.00;;;;;;20831771;28;20128;-61
2021/06/30 06:20:23;;;;;;;8.68;3.38;;;21.20;49.60;;;;;;20831375;28;20045;-67
2021/06/30 06:30:30;;;;;;;8.00;4.50;;;21.40;50.90;;;;;;20830841;28;20049;-60
2021/06/30 06:40:33;;;;;;;8.73;4.00;;;21.50;52.80;;;;;;20831342;28;20136;-71
2021/06/30 06:50:36;;;;;;;9.65;4.50;;;21.70;53.50;;;;;;20829885;28;20053;-67
2021/06/30 07:00:38;;;;;;;10.83;4.57;;;22.00;53.80;;;;;;20828839;28;20085;-68
2021/06/30 07:10:40;;;;;;;13.80;4.60;;;22.50;52.60;;;;;;20829080;28;20053;-71
2021/06/30 07:20:44;;;;;;;12.32;4.35;;;23.40;51.00;;;;;;20827894;28;20046;-71
2021/06/30 07:30:46;;;;;;;11.27;6.47;;;24.10;49.20;;;;;;20827507;28;20045;-62
2021/06/30 07:40:49;;;;;;;7.82;4.40;;;24.70;47.50;;;;;;20827286;28;20050;-64
2021/06/30 07:50:52;;;;;;;7.10;4.82;;;25.20;45.80;;;;;;20827019;28;20478;-62
2021/06/30 08:00:58;;;;;;;8.93;4.57;;;25.80;44.20;;;;;;20838494;28;20083;-67
2021/06/30 08:11:03;;;;;;;9.25;4.18;;;26.10;43.00;;;;;;20840406;28;20092;-66
2021/06/30 08:21:06;;;;;;;7.25;3.90;;;26.50;42.20;;;;;;20841654;28;20413;-62
2021/06/30 08:31:08;;;;;;;10.98;3.70;;;26.90;41.20;;;;;;20838578;28;20406;-64
2021/06/30 08:41:10;;;;;;;10.23;4.50;;;27.20;40.40;;;;;;20839274;28;20045;-60
2021/06/30 08:51:19;;;;;;;9.43;3.97;;;27.40;39.90;;;;;;20838733;28;20379;-60
2021/06/30 09:01:21;;;;;;;9.48;3.78;;;27.60;39.50;;;;;;20837172;28;20053;-58
2021/06/30 09:11:26;;;;;;;7.65;3.22;;;27.90;38.20;;;;;;20836310;28;20482;-58
2021/06/30 09:21:30;;;;;;;7.22;3.53;;;28.10;38.30;;;;;;20834144;28;20144;-69
2021/06/30 09:31:34;;;;;;;9.18;4.95;;;28.30;38.00;;;;;;20833418;28;20053;-64
2021/06/30 09:41:43;;;;;;;10.23;4.10;;;28.60;37.20;;;;;;20834287;28;20134;-68
2021/06/30 09:52:02;;;;;;;5.10;3.88;;;28.70;37.50;;;;;;20832420;28;20054;-59
2021/06/30 10:02:10;;;;;;;7.10;3.72;;;29.10;37.10;;;;;;20830978;28;20095;-58
2021/06/30 10:12:14;;;;;;;7.47;4.22;;;29.20;35.90;;;;;;20831159;28;20053;-61
2021/06/30 10:22:16;;;;;;;7.32;2.72;;;29.30;35.20;;;;;;20829953;28;20061;-66
2021/06/30 10:32:17;;;;;;;6.53;3.08;;;29.40;34.00;;;;;;20829585;28;20054;-64
2021/06/30 10:42:31;;;;;;;5.57;2.90;;;29.60;33.70;;;;;;20829771;28;20461;-68
2021/06/30 10:52:32;;;;;;;6.75;2.88;;;29.60;33.20;;;;;;20829345;28;20128;-67
2021/06/30 11:02:35;;;;;;;5.35;2.90;;;29.90;31.90;;;;;;20828792;28;20049;-62
2021/06/30 11:13:09;;;;;;;3.92;2.60;;;30.10;29.50;;;;;;20828589;28;20390;-64
2021/06/30 11:23:18;;;;;;;5.03;3.13;;;30.30;27.90;;;;;;20657091;28;20054;-61
2021/06/30 11:33:20;;;;;;;5.20;3.35;;;30.60;27.00;;;;;;20666303;28;20053;-62
2021/06/30 11:43:28;;;;;;;6.03;2.58;;;30.60;26.30;;;;;;20670950;28;20127;-67
2021/06/30 11:53:46;;;;;;;4.32;2.97;;;30.60;25.80;;;;;;20732170;28;20455;-66
2021/06/30 12:03:48;;;;;;;6.80;3.33;;;30.90;24.80;;;;;;20841002;28;20080;-66
2021/06/30 12:14:05;;;;;;;3.10;2.20;;;30.90;24.50;;;;;;20840885;28;20500;-62
2021/06/30 12:24:14;;;;;;;3.83;2.33;;;30.90;25.60;;;;;;20758315;28;20053;-59
2021/06/30 12:34:18;;;;;;;7.87;2.57;;;31.10;24.50;;;;;;20756099;28;20054;-60
2021/06/30 12:44:22;;;;;;;2.83;1.90;;;31.20;23.00;;;;;;20755098;28;20053;-60
2021/06/30 12:54:25;;;;;;;4.30;2.30;;;31.20;22.00;;;;;;20755442;28;20057;-62
2021/06/30 13:04:33;;;;;;;2.50;1.90;;;31.30;22.50;;;;;;20754675;28;20050;-64
2021/06/30 13:14:38;;;;;;;3.75;1.73;;;31.60;21.20;;;;;;20757894;28;20527;-69
2021/06/30 13:34:47;;;;;;;4.15;1.65;;;31.60;19.90;;;;;;20833912;28;20085;-61
2021/06/30 13:44:58;;;;;;;2.88;1.80;;;31.90;19.80;;;;;;20833497;28;20045;-63
2021/06/30 13:55:01;;;;;;;4.32;1.50;;;32.10;20.00;;;;;;20832244;28;20049;-62
2021/06/30 14:05:05;;;;;;;2.00;1.58;;;32.10;19.90;;;;;;20832453;28;20056;-61
2021/06/30 14:15:09;;;;;;;5.40;1.42;;;32.30;18.80;;;;;;20813573;28;20060;-61
2021/06/30 14:25:16;;;;;;;3.72;1.50;;;32.40;18.50;;;;;;20831073;28;20398;-61
2021/06/30 14:35:17;;;;;;;21.23;2.20;;;32.40;18.50;;;;;;20830767;28;20460;-68
2021/06/30 14:45:19;;;;;;;2.60;1.75;;;32.50;18.60;;;;;;20829601;28;20107;-62
2021/06/30 14:55:21;;;;;;;3.28;1.60;;;32.60;18.20;;;;;;20828999;28;20167;-61
2021/06/30 15:05:23;;;;;;;2.63;1.50;;;32.60;18.30;;;;;;20835238;28;20049;-62
2021/06/30 15:15:26;;;;;;;3.35;1.80;;;32.60;18.40;;;;;;20845593;28;20065;-63
2021/06/30 15:25:27;;;;;;;4.60;2.03;;;32.80;18.50;;;;;;20844496;28;20470;-61
2021/06/30 15:35:29;;;;;;;4.05;1.85;;;32.80;18.50;;;;;;20843218;28;20049;-63
2021/06/30 15:45:31;;;;;;;2.92;1.80;;;32.90;18.20;;;;;;20844744;28;20045;-62
2021/06/30 15:55:33;;;;;;;3.05;2.20;;;33.00;18.00;;;;;;20843069;28;20056;-63
2021/06/30 16:05:36;;;;;;;3.20;1.90;;;32.80;19.00;;;;;;20824761;28;20045;-66
2021/06/30 16:15:39;;;;;;;4.05;2.25;;;33.00;18.70;;;;;;20839667;28;20140;-64
2021/06/30 16:25:41;;;;;;;5.00;1.90;;;32.90;18.70;;;;;;20840754;28;20045;-62
2021/06/30 16:35:44;;;;;;;2.65;1.85;;;32.90;18.40;;;;;;20838990;28;20183;-62
2021/06/30 16:45:46;;;;;;;3.05;1.73;;;32.80;18.60;;;;;;20838668;28;20421;-62
2021/06/30 16:55:50;;;;;;;3.53;1.80;;;32.80;18.60;;;;;;20837213;28;20049;-61
2021/06/30 17:05:51;;;;;;;5.95;2.35;;;33.00;18.30;;;;;;20836536;28;20417;-68
2021/06/30 17:15:54;;;;;;;5.13;3.88;;;32.60;18.80;;;;;;20835668;28;20053;-62
2021/06/30 17:25:56;;;;;;;3.17;2.60;;;32.60;19.10;;;;;;20817515;28;20057;-62
2021/06/30 17:35:59;;;;;;;3.45;2.50;;;32.50;18.90;;;;;;20833765;28;20089;-62
2021/06/30 17:46:02;;;;;;;3.50;2.42;;;32.40;19.30;;;;;;20815959;28;20051;-67
2021/06/30 17:56:04;;;;;;;3.05;2.38;;;32.40;19.50;;;;;;20832527;28;20055;-61
2021/06/30 18:06:06;;;;;;;2.72;2.10;;;32.40;20.10;;;;;;20834058;28;20104;-68
2021/06/30 18:16:08;;;;;;;3.13;2.28;;;32.20;19.70;;;;;;20830565;28;20227;-67
2021/06/30 18:26:12;;;;;;;3.05;2.15;;;32.10;19.70;;;;;;20830422;28;20053;-62
2021/06/30 18:36:14;;;;;;;5.43;2.70;;;32.00;19.90;;;;;;20830014;28;20056;-62
2021/06/30 18:46:16;;;;;;;2.97;2.22;;;31.80;20.00;;;;;;20829406;28;20045;-64
2021/06/30 18:56:17;;;;;;;4.25;2.58;;;31.60;19.90;;;;;;20829066;28;20137;-68
2021/06/30 19:06:19;;;;;;;3.33;2.53;;;31.50;19.70;;;;;;20828761;28;20081;-64
2021/06/30 19:16:22;;;;;;;5.57;2.80;;;31.30;20.10;;;;;;20828167;28;20061;-67
2021/06/30 19:26:23;;;;;;;8.02;2.90;;;31.10;20.70;;;;;;20828107;28;20056;-61
2021/06/30 19:36:25;;;;;;;13.20;7.28;;;30.90;20.50;;;;;;20827612;28;20089;-68
2021/06/30 19:46:27;;;;;;;5.55;4.38;;;30.60;20.90;;;;;;20827063;28;20505;-61
2021/06/30 19:56:30;;;;;;;6.90;5.60;;;30.50;21.00;;;;;;20839873;28;20054;-69
2021/06/30 20:06:34;;;;;;;6.57;4.88;;;30.20;21.20;;;;;;20841741;28;20046;-65
2021/06/30 20:16:36;;;;;;;8.30;3.75;;;30.00;20.90;;;;;;20839657;28;20065;-63
2021/06/30 20:26:38;;;;;;;6.53;3.13;;;29.80;20.50;;;;;;20840512;28;20220;-66
2021/06/30 20:36:40;;;;;;;5.40;2.50;;;29.70;19.90;;;;;;20838739;28;20088;-70
2021/06/30 20:46:42;;;;;;;3.97;2.47;;;29.60;19.80;;;;;;20838594;28;20597;-70
2021/06/30 20:56:44;;;;;;;6.22;2.60;;;29.50;19.60;;;;;;20837022;28;20386;-60
2021/06/30 21:06:46;;;;;;;3.58;2.20;;;29.20;19.60;;;;;;20836763;28;20068;-64
2021/06/30 21:16:48;;;;;;;3.75;2.63;;;29.10;19.00;;;;;;20836618;28;20089;-64
2021/06/30 21:26:52;;;;;;;4.67;3.33;;;29.00;19.00;;;;;;20818235;28;20097;-61
2021/06/30 21:36:53;;;;;;;5.45;2.45;;;28.70;19.20;;;;;;20835171;28;20442;-64
2021/06/30 21:46:56;;;;;;;3.65;2.90;;;28.50;19.00;;;;;;20834785;28;20060;-69
2021/06/30 21:56:57;;;;;;;4.60;3.00;;;28.40;19.60;;;;;;20834900;28;20049;-69
2021/06/30 22:07:00;;;;;;;5.97;5.32;;;28.20;19.50;;;;;;20832448;28;20456;-71
2021/06/30 22:17:02;;;;;;;8.93;6.95;;;28.10;19.30;;;;;;20830207;28;20061;-62
2021/06/30 22:27:04;;;;;;;6.50;4.78;;;28.00;19.10;;;;;;20829547;28;20046;-60
2021/06/30 22:37:06;;;;;;;2.92;2.30;;;28.00;19.20;;;;;;20830538;28;20128;-61
2021/06/30 22:47:08;;;;;;;4.85;2.50;;;27.60;20.10;;;;;;20828192;28;20141;-62
2021/06/30 22:57:11;;;;;;;3.88;2.65;;;27.30;20.70;;;;;;20829972;28;20382;-61
2021/06/30 23:07:12;;;;;;;3.70;2.65;;;27.10;21.20;;;;;;20829695;28;20132;-61
2021/06/30 23:17:14;;;;;;;4.55;2.45;;;26.80;22.00;;;;;;20830686;28;20061;-69
2021/06/30 23:27:16;;;;;;;5.15;3.08;;;26.60;22.20;;;;;;20836214;28;20057;-61
2021/06/30 23:37:18;;;;;;;9.50;7.10;;;26.50;22.30;;;;;;20845391;28;20085;-61
2021/06/30 23:47:19;;;;;;;4.22;2.80;;;26.30;22.70;;;;;;20858968;28;20148;-65
2021/06/30 23:57:21;;;;;;;6.10;2.53;;;26.20;23.00;;;;;;20843277;28;20053;-69
